Wednesday, June 20, 2018, 5:18 PM EDT
Back to Local

KBLM, Belmar-farmingdale

Location: Farmingdale, NJ, United States Lat: 40.183
Local Time: 5:18 PM EDT (21:18 GMT) Lon: -74.133
Time Zone: US/Eastern Elev: 157 ft

Show me the last for .
Show Decoded

2018-06-20 16:56 METAR KBLM 202056Z AUTO 15007KT 10SM CLR 26/18 A2980 RMK AO2 SLP094 T02560178
                 58016 =
2018-06-20 15:56 METAR KBLM 201956Z AUTO 14010KT 10SM CLR 26/19 A2982 RMK AO2 SLP101 T02610189 =
2018-06-20 14:56 METAR KBLM 201856Z AUTO 15008KT 10SM CLR 27/20 A2984 RMK AO2 SLP106 T02670200 =
2018-06-20 13:56 METAR KBLM 201756Z AUTO 14008G16KT 10SM CLR 26/17 A2985 RMK AO2 SLP110 T02610172
                 10267 20211 58020 =
2018-06-20 12:56 METAR KBLM 201656Z AUTO 12007KT 10SM CLR 26/16 A2987 RMK AO2 SLP117 T02610161 =
2018-06-20 11:56 METAR KBLM 201556Z AUTO 13006KT 10SM CLR 24/14 A2989 RMK AO2 SLP125 T02390144 =
2018-06-20 10:56 METAR KBLM 201456Z AUTO 06006KT 10SM OVC120 23/14 A2991 RMK AO2 SLP130 T02280139
                 58002 =
2018-06-20 09:56 METAR KBLM 201356Z AUTO 09008KT 10SM CLR 22/13 A2991 RMK AO2 SLP132 T02220133 =
2018-06-20 08:56 METAR KBLM 201256Z AUTO 08008KT 10SM CLR 22/13 A2991 RMK AO2 SLP132 T02170128 =
2018-06-20 07:56 METAR KBLM 201156Z AUTO 06006KT 10SM CLR 21/13 A2991 RMK AO2 SLP132 6//// 7////
                 T02110128 10217 20194 51008 =
2018-06-20 06:56 METAR KBLM 201056Z AUTO 06005KT 10SM CLR 21/13 A2991 RMK AO2 SLP130 T02060128 =
2018-06-20 05:56 METAR KBLM 200956Z AUTO 04005KT 10SM CLR 20/13 A2990 RMK AO2 SLP128 T02000133 =
2018-06-20 04:56 METAR KBLM 200856Z AUTO 06006KT 10SM CLR 21/12 A2989 RMK AO2 SLP124 6////
                 T02110122 53003 =
2018-06-20 03:56 METAR KBLM 200756Z AUTO 07004KT 10SM CLR 21/16 A2988 RMK AO2 SLP121 T02060161 =
2018-06-20 02:56 METAR KBLM 200656Z AUTO 06003KT 10SM CLR 21/18 A2989 RMK AO2 SLP122 T02060178 =
2018-06-20 01:56 METAR KBLM 200556Z AUTO 09005KT 10SM CLR 20/17 A2988 RMK AO2 SLP121 6////
                 T02000167 10261 20200 53002 =
2018-06-20 00:56 METAR KBLM 200456Z AUTO 00000KT 10SM CLR 21/16 A2987 RMK AO2 SLP118 T02060161
                 403110200 =
2018-06-19 23:56 METAR KBLM 200356Z AUTO 22003KT 10SM CLR 22/16 A2986 RMK AO2 SLP115 T02220161 =
2018-06-19 22:56 METAR KBLM 200256Z AUTO 22003KT 10SM CLR 22/17 A2988 RMK AO2 SLP119 6////
                 T02170167 50014 =
2018-06-19 21:56 METAR KBLM 200156Z AUTO 23003KT 10SM CLR 23/16 A2988 RMK AO2 SLP119 T02330161 =
2018-06-19 19:56 METAR KBLM 192356Z AUTO 00000KT 10SM CLR 26/16 A2984 RMK AO2 SLP105 6////
                 T02610161 10306 20261 53008 =
2018-06-19 18:56 METAR KBLM 192256Z AUTO 15006KT 10SM CLR 28/14 A2982 RMK AO2 SLP099 T02780139 =
2018-06-19 17:56 METAR KBLM 192156Z AUTO 11006KT 10SM CLR 28/16 A2981 RMK AO2 SLP096 T02830156 =

Support USWX by starting your Amazon purchase here.